createdAt,value
2023-01-09T00:01:35.885Z,57.62
2023-01-09T00:04:03.084Z,57.66
2023-01-09T00:06:30.133Z,57.41
2023-01-09T00:08:57.650Z,57.27
2023-01-09T00:11:24.633Z,57.04
2023-01-09T00:13:51.557Z,56.90
2023-01-09T00:16:18.756Z,56.76
2023-01-09T00:18:45.989Z,56.77
2023-01-09T00:21:13.637Z,56.91
2023-01-09T00:23:40.904Z,57.03
2023-01-09T00:26:17.191Z,56.93
2023-01-09T00:28:48.115Z,56.91
2023-01-09T00:31:15.168Z,56.68
2023-01-09T00:33:43.843Z,56.81
2023-01-09T00:36:11.020Z,56.61
2023-01-09T00:38:38.075Z,56.53
2023-01-09T00:41:06.553Z,56.08
2023-01-09T00:43:36.013Z,56.13
2023-01-09T00:46:04.318Z,56.19
2023-01-09T00:48:31.628Z,56.06
2023-01-09T00:50:59.184Z,55.95
2023-01-09T00:53:28.559Z,56.10
2023-01-09T00:55:58.176Z,56.03
2023-01-09T00:58:25.452Z,56.13
2023-01-09T01:00:52.526Z,56.11
2023-01-09T01:03:19.585Z,55.99
2023-01-09T01:06:05.133Z,56.00
2023-01-09T01:08:31.975Z,55.94
2023-01-09T01:10:58.895Z,55.99
2023-01-09T01:13:25.827Z,55.93
2023-01-09T01:15:52.726Z,55.70
2023-01-09T01:18:19.630Z,55.42
2023-01-09T01:20:46.497Z,55.36
2023-01-09T01:23:13.435Z,55.45
2023-01-09T01:25:40.996Z,55.29
2023-01-09T01:28:08.280Z,55.35
2023-01-09T01:30:42.391Z,55.36
2023-01-09T01:33:10.049Z,55.70
2023-01-09T01:35:36.981Z,55.54
2023-01-09T01:38:04.044Z,55.53
2023-01-09T01:40:30.922Z,55.63
2023-01-09T01:42:58.978Z,56.05
2023-01-09T01:45:29.921Z,57.34
2023-01-09T01:47:59.790Z,57.44
2023-01-09T01:50:45.034Z,57.67
2023-01-09T01:53:24.497Z,57.23
2023-01-09T01:55:54.375Z,57.09
2023-01-09T01:58:21.344Z,57.11
2023-01-09T02:00:48.289Z,56.92
2023-01-09T02:03:17.797Z,58.25
2023-01-09T02:05:44.671Z,59.82
2023-01-09T02:08:11.456Z,59.75
2023-01-09T02:10:38.353Z,59.26
2023-01-09T02:13:06.261Z,59.30
2023-01-09T02:15:44.341Z,58.65
2023-01-09T02:18:32.400Z,58.95
2023-01-09T02:21:03.287Z,59.88
2023-01-09T02:23:54.155Z,60.97
2023-01-09T02:26:35.095Z,61.31
2023-01-09T02:29:26.439Z,61.49
2023-01-09T02:32:23.990Z,61.92
2023-01-09T02:34:51.042Z,62.44
2023-01-09T02:37:23.520Z,62.18
2023-01-09T02:39:55.697Z,62.15
2023-01-09T02:42:23.997Z,62.54
2023-01-09T02:44:51.119Z,63.18
2023-01-09T02:47:18.000Z,63.70
2023-01-09T02:49:52.657Z,64.00
2023-01-09T02:52:48.044Z,64.73
2023-01-09T02:56:03.486Z,65.63
2023-01-09T02:58:47.021Z,66.86
2023-01-09T03:01:32.873Z,66.81
2023-01-09T03:04:19.883Z,68.53
2023-01-09T03:07:00.689Z,69.22
2023-01-09T03:09:29.198Z,70.64
2023-01-09T03:12:00.083Z,71.06
2023-01-09T03:14:27.066Z,71.39
2023-01-09T03:16:57.029Z,71.73
2023-01-09T03:19:26.193Z,72.08
2023-01-09T03:21:53.027Z,73.44
2023-01-09T03:24:19.850Z,73.85
2023-01-09T03:26:46.753Z,73.67
2023-01-09T03:29:13.701Z,73.05
2023-01-09T03:31:40.742Z,73.00
2023-01-09T03:34:07.835Z,74.01
2023-01-09T03:36:34.806Z,74.59
2023-01-09T03:39:01.750Z,74.53
2023-01-09T03:41:28.585Z,74.71
2023-01-09T03:43:55.481Z,75.21
2023-01-09T03:46:22.309Z,75.69
2023-01-09T03:48:49.231Z,75.58
2023-01-09T03:51:16.188Z,75.62
2023-01-09T03:53:43.355Z,75.62
2023-01-09T03:56:10.325Z,75.85
2023-01-09T03:58:37.260Z,75.39
2023-01-09T04:01:05.297Z,75.93
2023-01-09T04:03:32.359Z,76.13
2023-01-09T04:05:59.234Z,75.77
2023-01-09T04:08:26.143Z,76.19
2023-01-09T04:10:53.013Z,76.18
2023-01-09T04:13:20.116Z,76.09
2023-01-09T04:15:47.056Z,76.34
2023-01-09T04:18:14.219Z,76.82
2023-01-09T04:20:41.691Z,76.41
2023-01-09T04:23:08.740Z,76.64
2023-01-09T04:25:35.694Z,76.50
2023-01-09T04:28:02.565Z,76.74
2023-01-09T04:30:29.611Z,76.94
2023-01-09T04:32:56.671Z,76.85
2023-01-09T04:35:23.587Z,76.84
2023-01-09T04:37:50.497Z,77.36
2023-01-09T04:40:18.346Z,77.69
2023-01-09T04:42:45.261Z,78.03
2023-01-09T04:45:12.366Z,77.88
2023-01-09T04:47:39.303Z,77.29
2023-01-09T04:50:06.572Z,77.51
2023-01-09T04:52:33.429Z,77.58
2023-01-09T04:55:00.378Z,77.87
2023-01-09T04:57:27.433Z,77.75
2023-01-09T04:59:54.489Z,78.05
2023-01-09T05:02:21.461Z,78.00
2023-01-09T05:04:48.496Z,77.48
2023-01-09T05:07:15.458Z,77.58
2023-01-09T05:09:43.082Z,77.70
2023-01-09T05:12:10.080Z,77.74
2023-01-09T05:14:37.030Z,77.88
2023-01-09T05:17:04.000Z,78.12
2023-01-09T05:19:31.042Z,78.51
2023-01-09T05:21:58.035Z,78.50
2023-01-09T05:24:24.995Z,78.53
2023-01-09T05:26:51.931Z,78.20
2023-01-09T05:29:19.022Z,78.23
2023-01-09T05:31:47.868Z,78.61
2023-01-09T05:34:15.876Z,78.69
2023-01-09T05:36:57.575Z,78.58
2023-01-09T05:39:30.057Z,78.87
2023-01-09T05:41:58.035Z,78.77
2023-01-09T05:44:26.014Z,78.71
2023-01-09T05:46:53.013Z,78.27
2023-01-09T05:49:19.912Z,78.43
2023-01-09T05:52:04.701Z,78.19
2023-01-09T05:54:31.992Z,77.85
2023-01-09T05:57:05.046Z,78.05
2023-01-09T06:02:14.373Z,78.34
2023-01-09T06:04:46.445Z,77.85
2023-01-09T06:07:18.013Z,77.63
2023-01-09T06:09:50.958Z,77.43
2023-01-09T06:12:26.737Z,77.89
2023-01-09T06:17:51.996Z,78.17
2023-01-09T06:20:19.338Z,78.37
2023-01-09T06:22:46.207Z,78.77
2023-01-09T06:25:16.668Z,78.75
2023-01-09T06:27:43.702Z,78.01
2023-01-09T06:30:23.516Z,78.10
2023-01-09T06:32:50.613Z,78.16
2023-01-09T06:35:24.486Z,78.42
2023-01-09T06:37:53.660Z,78.45
2023-01-09T06:40:30.040Z,78.72
2023-01-09T06:43:02.001Z,78.42
2023-01-09T06:45:34.369Z,78.54
2023-01-09T06:48:03.393Z,78.79
2023-01-09T06:50:30.427Z,79.02
2023-01-09T06:52:57.425Z,78.92
2023-01-09T06:55:29.860Z,78.81
2023-01-09T06:57:57.254Z,79.15
2023-01-09T07:00:24.327Z,79.14
2023-01-09T07:02:51.474Z,78.96
2023-01-09T07:05:22.472Z,79.10
2023-01-09T07:07:49.820Z,79.04
2023-01-09T07:10:21.803Z,78.75
2023-01-09T07:12:48.798Z,78.81
2023-01-09T07:15:15.823Z,78.61
2023-01-09T07:17:42.812Z,78.81
2023-01-09T07:20:10.565Z,78.55
2023-01-09T07:22:37.661Z,78.37
2023-01-09T07:25:08.164Z,78.88
2023-01-09T07:30:19.202Z,78.33
2023-01-09T07:32:53.103Z,78.27
2023-01-09T07:35:23.977Z,78.46
2023-01-09T07:37:52.969Z,78.18
2023-01-09T07:40:29.601Z,78.19
2023-01-09T07:42:57.735Z,78.43
2023-01-09T07:45:25.781Z,78.26
2023-01-09T07:47:52.615Z,78.33
2023-01-09T07:50:19.761Z,78.31
2023-01-09T07:52:46.749Z,78.42
2023-01-09T07:55:15.041Z,78.79
2023-01-09T07:57:43.527Z,78.39
2023-01-09T08:00:11.415Z,78.71
2023-01-09T08:02:41.541Z,78.81
2023-01-09T08:05:11.087Z,78.99
2023-01-09T08:07:38.044Z,79.19
2023-01-09T08:10:06.235Z,79.09
2023-01-09T08:12:33.385Z,79.11
2023-01-09T08:15:00.469Z,78.99
2023-01-09T08:17:27.509Z,79.10
2023-01-09T08:19:55.435Z,79.35
2023-01-09T08:22:23.955Z,79.14
2023-01-09T08:25:00.952Z,79.34
2023-01-09T08:27:29.819Z,79.03
2023-01-09T08:29:59.433Z,79.15
2023-01-09T08:32:29.809Z,79.34
2023-01-09T08:34:57.001Z,79.19
2023-01-09T08:37:28.009Z,78.72
2023-01-09T08:39:57.946Z,78.40
2023-01-09T08:42:44.381Z,78.79
2023-01-09T08:45:31.629Z,78.60
2023-01-09T08:48:00.904Z,78.32
2023-01-09T08:50:30.600Z,78.45
2023-01-09T08:53:01.601Z,78.57
2023-01-09T08:55:32.263Z,78.67
2023-01-09T09:00:40.133Z,78.39
2023-01-09T09:03:07.101Z,78.00
2023-01-09T09:05:39.210Z,77.65
2023-01-09T09:08:07.448Z,77.44
2023-01-09T09:10:36.099Z,77.87
2023-01-09T09:15:44.657Z,77.90
2023-01-09T09:18:14.592Z,78.17
2023-01-09T09:23:26.441Z,78.78
2023-01-09T09:25:56.230Z,78.57
2023-01-09T09:28:25.926Z,78.77
2023-01-09T09:33:40.372Z,78.89
2023-01-09T09:38:56.193Z,78.89
2023-01-09T09:42:00.120Z,78.99
2023-01-09T09:44:58.578Z,78.83
2023-01-09T09:47:45.929Z,78.81
2023-01-09T09:50:20.204Z,79.02
2023-01-09T09:53:06.344Z,78.99
2023-01-09T09:55:43.802Z,78.92
2023-01-09T09:58:36.367Z,79.23
2023-01-09T10:01:03.987Z,79.32
2023-01-09T10:03:49.719Z,78.87
2023-01-09T10:06:27.230Z,79.09
2023-01-09T10:09:21.357Z,78.89
2023-01-09T10:12:09.442Z,79.13
2023-01-09T10:14:36.420Z,79.22
2023-01-09T10:17:27.273Z,79.18
2023-01-09T10:20:03.477Z,79.11
2023-01-09T10:22:50.490Z,79.19
2023-01-09T10:25:20.740Z,79.42
2023-01-09T10:28:25.777Z,79.47
2023-01-09T10:31:24.178Z,79.20
2023-01-09T10:34:13.281Z,79.31
2023-01-09T10:37:12.547Z,79.38
2023-01-09T10:40:03.057Z,79.48
2023-01-09T10:42:43.809Z,79.63
2023-01-09T10:45:30.317Z,79.91
2023-01-09T10:48:23.783Z,80.09
2023-01-09T10:50:50.880Z,80.03
2023-01-09T10:53:22.663Z,80.36
2023-01-09T10:56:01.273Z,80.59
2023-01-09T11:01:19.892Z,80.46
2023-01-09T11:03:47.087Z,80.32
2023-01-09T11:06:36.753Z,80.57
2023-01-09T11:09:08.248Z,80.68
2023-01-09T11:11:42.825Z,80.52
2023-01-09T11:14:32.325Z,80.35
2023-01-09T11:17:01.647Z,80.50
2023-01-09T11:19:29.374Z,80.44
2023-01-09T11:22:10.240Z,80.50
2023-01-09T11:24:37.294Z,80.59
2023-01-09T11:27:23.506Z,80.63
2023-01-09T11:30:20.461Z,80.83
2023-01-09T11:32:47.528Z,80.95
2023-01-09T11:35:27.423Z,80.97
2023-01-09T11:38:16.153Z,80.72
2023-01-09T11:40:48.282Z,81.02
2023-01-09T11:43:30.903Z,81.01
2023-01-09T11:46:01.467Z,80.85
2023-01-09T11:48:35.680Z,80.92
2023-01-09T11:51:17.386Z,80.86
2023-01-09T11:54:07.461Z,80.72
2023-01-09T11:56:39.273Z,81.04
2023-01-09T11:59:20.322Z,81.02
2023-01-09T12:01:56.614Z,81.19
2023-01-09T12:04:48.846Z,81.37
2023-01-09T12:07:38.646Z,81.35
2023-01-09T12:10:11.832Z,81.27
2023-01-09T12:12:57.824Z,81.36
2023-01-09T12:15:34.802Z,81.20
2023-01-09T12:18:06.583Z,81.08
2023-01-09T12:20:39.350Z,81.22
2023-01-09T12:23:32.319Z,81.22
2023-01-09T12:26:28.871Z,81.17
2023-01-09T12:29:01.797Z,81.19
2023-01-09T12:31:53.873Z,81.30
2023-01-09T12:35:08.326Z,81.43
2023-01-09T12:37:55.214Z,81.30
2023-01-09T12:40:55.588Z,81.39
2023-01-09T12:43:26.493Z,81.34
2023-01-09T12:46:16.635Z,81.32
2023-01-09T12:49:05.068Z,81.29
2023-01-09T12:51:35.938Z,81.41
2023-01-09T12:57:15.784Z,81.35
2023-01-09T12:59:49.283Z,81.45
2023-01-09T13:02:27.972Z,81.45
2023-01-09T13:05:10.970Z,81.46
2023-01-09T13:07:46.470Z,81.36
2023-01-09T13:10:25.579Z,81.42
2023-01-09T13:12:52.742Z,81.43
2023-01-09T13:15:53.432Z,81.40
2023-01-09T13:18:32.984Z,81.42
2023-01-09T13:21:02.617Z,80.98
2023-01-09T13:23:53.027Z,80.84
2023-01-09T13:26:22.029Z,80.92
2023-01-09T13:28:56.484Z,80.77
2023-01-09T13:31:49.225Z,80.74
2023-01-09T13:34:22.805Z,80.84
2023-01-09T13:36:51.971Z,81.24
2023-01-09T13:39:26.421Z,81.49
2023-01-09T13:45:18.800Z,81.50
2023-01-09T13:47:45.842Z,81.60
2023-01-09T13:50:26.062Z,81.65
2023-01-09T13:52:55.232Z,81.63
2023-01-09T13:55:38.350Z,81.51
2023-01-09T13:58:14.150Z,81.61
2023-01-09T14:01:02.190Z,81.59
2023-01-09T14:03:33.555Z,81.53
2023-01-09T14:06:10.156Z,81.68
2023-01-09T14:08:45.084Z,81.64
2023-01-09T14:11:19.021Z,81.70
2023-01-09T14:13:46.002Z,81.80
2023-01-09T14:16:20.318Z,81.81
2023-01-09T14:18:58.136Z,81.79
2023-01-09T14:21:25.164Z,81.76
2023-01-09T14:24:06.497Z,81.78
2023-01-09T14:26:57.651Z,81.88
2023-01-09T14:29:41.215Z,81.76
2023-01-09T14:32:23.635Z,81.82
2023-01-09T14:35:18.199Z,81.80
2023-01-09T14:37:56.343Z,81.84
2023-01-09T14:40:23.989Z,81.79
2023-01-09T14:42:53.105Z,81.84
2023-01-09T14:45:25.372Z,81.83
2023-01-09T14:47:56.078Z,81.84
2023-01-09T14:50:46.739Z,81.93
2023-01-09T14:53:22.848Z,81.89
2023-01-09T14:56:00.459Z,81.93
2023-01-09T14:58:31.867Z,81.91
2023-01-09T15:01:06.960Z,81.97
2023-01-09T15:03:36.838Z,81.88
2023-01-09T15:06:08.261Z,81.89
2023-01-09T15:08:35.194Z,81.77
2023-01-09T15:11:02.199Z,81.75
2023-01-09T15:13:37.873Z,81.82
2023-01-09T15:16:06.099Z,81.72
2023-01-09T15:18:41.262Z,81.78
2023-01-09T15:21:15.914Z,81.67
2023-01-09T15:23:43.378Z,81.50
2023-01-09T15:26:29.510Z,81.46
2023-01-09T15:29:18.064Z,81.47
2023-01-09T15:31:46.179Z,81.34
2023-01-09T15:34:19.249Z,81.27
2023-01-09T15:36:50.443Z,81.29
2023-01-09T15:39:24.610Z,81.28
2023-01-09T15:42:10.479Z,81.09
2023-01-09T15:44:38.447Z,80.98
2023-01-09T15:47:06.646Z,80.81
2023-01-09T15:49:34.142Z,80.78
2023-01-09T15:52:01.440Z,80.96
2023-01-09T15:54:32.986Z,81.02
2023-01-09T15:57:24.940Z,80.75
2023-01-09T15:59:52.908Z,80.51
2023-01-09T16:02:39.158Z,80.45
2023-01-09T16:05:09.067Z,80.28
2023-01-09T16:07:36.106Z,80.20
2023-01-09T16:10:03.093Z,80.16
2023-01-09T16:12:30.097Z,80.18
2023-01-09T16:15:00.977Z,79.86
2023-01-09T16:17:30.038Z,79.72
2023-01-09T16:19:58.448Z,79.76
2023-01-09T16:22:26.336Z,79.86
2023-01-09T16:24:54.650Z,79.76
2023-01-09T16:27:24.206Z,79.40
2023-01-09T16:29:57.541Z,79.34
2023-01-09T16:32:30.166Z,79.16
2023-01-09T16:34:59.819Z,78.93
2023-01-09T16:37:27.036Z,78.71
2023-01-09T16:40:18.343Z,78.32
2023-01-09T16:43:00.942Z,78.28
2023-01-09T16:45:29.728Z,78.16
2023-01-09T16:47:58.370Z,77.97
2023-01-09T16:50:27.851Z,77.89
2023-01-09T16:52:56.005Z,77.48
2023-01-09T16:55:22.879Z,77.25
2023-01-09T16:57:49.741Z,77.06
2023-01-09T17:00:19.037Z,76.91
2023-01-09T17:02:46.073Z,76.63
2023-01-09T17:05:13.281Z,76.41
2023-01-09T17:07:42.975Z,76.35
2023-01-09T17:10:19.272Z,76.18
2023-01-09T17:12:46.143Z,75.93
2023-01-09T17:15:13.184Z,75.75
2023-01-09T17:17:40.283Z,75.50
2023-01-09T17:20:15.931Z,75.06
2023-01-09T17:22:43.257Z,74.68
2023-01-09T17:25:38.321Z,74.51
2023-01-09T17:28:24.232Z,74.44
2023-01-09T17:30:56.722Z,74.36
2023-01-09T17:33:23.654Z,74.32
2023-01-09T17:35:57.227Z,74.01
2023-01-09T17:38:27.132Z,73.73
2023-01-09T17:40:57.224Z,73.64
2023-01-09T17:43:24.661Z,73.29
2023-01-09T17:45:51.834Z,73.01
2023-01-09T17:48:20.930Z,72.75
2023-01-09T17:50:48.543Z,72.65
2023-01-09T17:53:16.475Z,72.49
2023-01-09T17:55:43.634Z,72.32
2023-01-09T17:58:25.068Z,72.21
2023-01-09T18:00:52.405Z,71.78
2023-01-09T18:03:20.988Z,71.78
2023-01-09T18:05:48.723Z,71.57
2023-01-09T18:08:16.452Z,71.42
2023-01-09T18:10:45.707Z,71.26
2023-01-09T18:13:12.795Z,71.10
2023-01-09T18:15:42.583Z,70.86
2023-01-09T18:18:09.889Z,70.37
2023-01-09T18:20:40.792Z,70.42
2023-01-09T18:23:08.474Z,69.97
2023-01-09T18:25:35.735Z,69.91
2023-01-09T18:28:04.756Z,69.89
2023-01-09T18:30:31.802Z,69.63
2023-01-09T18:33:00.620Z,69.35
2023-01-09T18:35:27.803Z,68.93
2023-01-09T18:37:54.788Z,68.71
2023-01-09T18:40:21.902Z,68.53
2023-01-09T18:42:48.910Z,68.41
2023-01-09T18:45:16.139Z,68.17
2023-01-09T18:47:43.362Z,68.14
2023-01-09T18:50:10.901Z,67.66
2023-01-09T18:52:38.037Z,67.48
2023-01-09T18:55:05.687Z,67.40
2023-01-09T18:57:32.611Z,67.25
2023-01-09T18:59:59.611Z,66.98
2023-01-09T19:02:26.694Z,66.67
2023-01-09T19:04:53.638Z,66.28
2023-01-09T19:07:23.403Z,65.84
2023-01-09T19:09:50.582Z,65.49
2023-01-09T19:12:17.644Z,65.24
2023-01-09T19:14:44.507Z,64.89
2023-01-09T19:17:11.393Z,64.92
2023-01-09T19:19:40.131Z,65.02
2023-01-09T19:22:07.554Z,64.73
2023-01-09T19:24:34.742Z,64.53
2023-01-09T19:27:01.647Z,63.77
2023-01-09T19:29:29.414Z,62.93
2023-01-09T19:31:59.611Z,62.80
2023-01-09T19:34:26.717Z,62.77
2023-01-09T19:36:54.229Z,62.22
2023-01-09T19:39:23.222Z,62.26
2023-01-09T19:41:50.240Z,62.17
2023-01-09T19:44:19.300Z,62.05
2023-01-09T19:46:46.380Z,62.21
2023-01-09T19:49:14.022Z,62.38
2023-01-09T19:51:47.176Z,62.07
2023-01-09T19:56:57.449Z,61.21
2023-01-09T19:59:27.376Z,60.98
2023-01-09T20:01:55.467Z,60.80
2023-01-09T20:04:24.903Z,60.67
2023-01-09T20:06:53.503Z,60.55
2023-01-09T20:09:29.192Z,60.53
2023-01-09T20:14:48.547Z,59.68
2023-01-09T20:17:17.742Z,58.80
2023-01-09T20:22:31.213Z,59.06
2023-01-09T20:25:01.174Z,58.90
2023-01-09T20:27:50.271Z,58.43
2023-01-09T20:30:32.748Z,57.76
2023-01-09T20:33:00.326Z,57.55
2023-01-09T20:35:27.960Z,57.44
2023-01-09T20:37:54.914Z,57.72
2023-01-09T20:40:31.814Z,57.88
2023-01-09T20:43:05.192Z,57.61
2023-01-09T20:45:41.012Z,56.53
2023-01-09T20:48:18.907Z,55.95
2023-01-09T20:50:48.985Z,55.67
2023-01-09T20:53:21.071Z,55.40
2023-01-09T20:55:50.141Z,55.17
2023-01-09T20:58:17.171Z,54.81
2023-01-09T21:00:44.135Z,54.57
2023-01-09T21:03:15.656Z,54.52
2023-01-09T21:05:48.920Z,53.90
2023-01-09T21:08:18.215Z,53.97
2023-01-09T21:10:46.531Z,53.35
2023-01-09T21:13:16.461Z,52.38
2023-01-09T21:15:46.050Z,51.86
2023-01-09T21:18:13.005Z,51.82
2023-01-09T21:20:50.235Z,51.82
2023-01-09T21:23:17.082Z,51.37
2023-01-09T21:25:45.465Z,51.38
2023-01-09T21:28:15.037Z,51.42
2023-01-09T21:30:42.792Z,51.12
2023-01-09T21:33:09.773Z,51.19
2023-01-09T21:35:37.189Z,50.83
2023-01-09T21:38:04.265Z,50.75
2023-01-09T21:40:31.163Z,50.92
2023-01-09T21:43:16.955Z,51.00
2023-01-09T21:46:19.255Z,50.74
2023-01-09T21:48:46.179Z,50.43
2023-01-09T21:51:13.223Z,50.30
2023-01-09T21:53:40.212Z,50.27
2023-01-09T21:56:08.008Z,50.36
2023-01-09T21:58:35.099Z,50.82
2023-01-09T22:01:03.598Z,50.93
2023-01-09T22:03:30.552Z,50.80
2023-01-09T22:05:57.473Z,50.32
2023-01-09T22:08:24.545Z,50.23
2023-01-09T22:10:55.825Z,49.77
2023-01-09T22:13:22.886Z,49.91
2023-01-09T22:15:50.063Z,50.03
2023-01-09T22:18:16.923Z,49.51
2023-01-09T22:20:45.165Z,49.52
2023-01-09T22:23:12.226Z,49.47
2023-01-09T22:25:39.165Z,49.50
2023-01-09T22:28:06.049Z,49.60
2023-01-09T22:30:32.991Z,49.65
2023-01-09T22:33:00.860Z,49.73
2023-01-09T22:35:27.718Z,50.15
2023-01-09T22:37:54.765Z,50.39
2023-01-09T22:40:21.747Z,50.41
2023-01-09T22:42:52.490Z,50.16
2023-01-09T22:45:19.481Z,50.33
2023-01-09T22:47:46.561Z,50.37
2023-01-09T22:50:13.786Z,50.64
2023-01-09T22:52:41.049Z,51.04
2023-01-09T22:55:08.953Z,51.42
2023-01-09T22:57:35.999Z,51.50
2023-01-09T23:00:03.264Z,51.30
2023-01-09T23:02:30.347Z,51.05
2023-01-09T23:05:00.386Z,50.91
2023-01-09T23:07:27.805Z,51.07
2023-01-09T23:10:00.693Z,51.43
2023-01-09T23:12:27.840Z,51.42
2023-01-09T23:14:54.857Z,51.28
2023-01-09T23:17:21.756Z,51.30
2023-01-09T23:19:48.725Z,51.53
2023-01-09T23:22:15.751Z,51.41
2023-01-09T23:24:42.731Z,51.55
2023-01-09T23:27:09.651Z,51.27
2023-01-09T23:29:38.540Z,50.98
2023-01-09T23:32:06.996Z,50.33
2023-01-09T23:34:34.421Z,50.24
2023-01-09T23:37:01.446Z,50.16
2023-01-09T23:39:28.315Z,49.96
2023-01-09T23:42:14.000Z,49.83
2023-01-09T23:44:41.054Z,49.73
2023-01-09T23:47:08.017Z,49.70
2023-01-09T23:49:35.106Z,50.15
2023-01-09T23:52:05.102Z,49.90
2023-01-09T23:54:32.524Z,49.99
2023-01-09T23:56:59.484Z,50.08
2023-01-09T23:59:26.357Z,49.91
